sensor_id;sensor_type;location;lat;lon;timestamp;temperature;humidity
11242;DHT22;5678;52.370;9.006;2023-04-23T00:01:58;13.40;99.90
11242;DHT22;5678;52.370;9.006;2023-04-23T00:04:27;14.60;99.90
11242;DHT22;5678;52.370;9.006;2023-04-23T00:06:59;13.20;99.90
11242;DHT22;5678;52.370;9.006;2023-04-23T00:09:29;13.90;99.90
11242;DHT22;5678;52.370;9.006;2023-04-23T00:11:58;13.10;99.90
11242;DHT22;5678;52.370;9.006;2023-04-23T00:14:27;12.90;99.90
11242;DHT22;5678;52.370;9.006;2023-04-23T00:16:55;13.00;99.90
11242;DHT22;5678;52.370;9.006;2023-04-23T00:19:23;12.90;99.90
11242;DHT22;5678;52.370;9.006;2023-04-23T00:21:52;12.90;99.90
11242;DHT22;5678;52.370;9.006;2023-04-23T00:24:20;13.20;99.90
11242;DHT22;5678;52.370;9.006;2023-04-23T00:26:48;14.30;99.90
11242;DHT22;5678;52.370;9.006;2023-04-23T00:29:18;12.60;99.90
11242;DHT22;5678;52.370;9.006;2023-04-23T00:31:46;14.20;99.90
11242;DHT22;5678;52.370;9.006;2023-04-23T00:34:14;14.10;99.90
11242;DHT22;5678;52.370;9.006;2023-04-23T00:36:42;12.40;99.90
11242;DHT22;5678;52.370;9.006;2023-04-23T00:39:11;12.30;99.90
11242;DHT22;5678;52.370;9.006;2023-04-23T00:41:39;12.50;99.90
11242;DHT22;5678;52.370;9.006;2023-04-23T00:44:08;12.60;99.90
11242;DHT22;5678;52.370;9.006;2023-04-23T00:46:36;13.00;99.90
11242;DHT22;5678;52.370;9.006;2023-04-23T00:49:04;14.20;99.90
11242;DHT22;5678;52.370;9.006;2023-04-23T00:51:32;12.50;99.90
11242;DHT22;5678;52.370;9.006;2023-04-23T00:54:00;12.40;99.90
11242;DHT22;5678;52.370;9.006;2023-04-23T00:56:30;13.20;99.90
11242;DHT22;5678;52.370;9.006;2023-04-23T00:58:58;12.40;99.90
11242;DHT22;5678;52.370;9.006;2023-04-23T01:01:28;14.00;99.90
11242;DHT22;5678;52.370;9.006;2023-04-23T01:03:56;13.20;99.90
11242;DHT22;5678;52.370;9.006;2023-04-23T01:06:25;13.20;99.90
11242;DHT22;5678;52.370;9.006;2023-04-23T01:08:54;13.80;99.90
11242;DHT22;5678;52.370;9.006;2023-04-23T01:11:22;13.30;99.90
11242;DHT22;5678;52.370;9.006;2023-04-23T01:13:52;12.70;99.90
11242;DHT22;5678;52.370;9.006;2023-04-23T01:16:20;12.30;99.90
11242;DHT22;5678;52.370;9.006;2023-04-23T01:18:48;14.20;99.90
11242;DHT22;5678;52.370;9.006;2023-04-23T01:21:16;14.00;99.90
11242;DHT22;5678;52.370;9.006;2023-04-23T01:23:46;12.50;99.90
11242;DHT22;5678;52.370;9.006;2023-04-23T01:26:14;13.00;99.90
11242;DHT22;5678;52.370;9.006;2023-04-23T01:28:42;12.30;99.90
11242;DHT22;5678;52.370;9.006;2023-04-23T01:31:11;12.50;99.90
11242;DHT22;5678;52.370;9.006;2023-04-23T01:33:40;12.40;99.90
11242;DHT22;5678;52.370;9.006;2023-04-23T01:36:08;12.20;99.90
11242;DHT22;5678;52.370;9.006;2023-04-23T01:38:37;13.60;99.90
11242;DHT22;5678;52.370;9.006;2023-04-23T01:41:06;12.10;99.90
11242;DHT22;5678;52.370;9.006;2023-04-23T01:43:35;12.90;99.90
11242;DHT22;5678;52.370;9.006;2023-04-23T01:46:03;12.10;99.90
11242;DHT22;5678;52.370;9.006;2023-04-23T01:48:31;12.10;99.90
11242;DHT22;5678;52.370;9.006;2023-04-23T01:50:59;12.00;99.90
11242;DHT22;5678;52.370;9.006;2023-04-23T01:53:27;12.80;99.90
11242;DHT22;5678;52.370;9.006;2023-04-23T01:55:56;12.20;99.90
11242;DHT22;5678;52.370;9.006;2023-04-23T01:58:25;12.70;99.90
11242;DHT22;5678;52.370;9.006;2023-04-23T02:00:53;12.00;99.90
11242;DHT22;5678;52.370;9.006;2023-04-23T02:03:21;11.80;99.90
11242;DHT22;5678;52.370;9.006;2023-04-23T02:05:50;11.60;99.90
11242;DHT22;5678;52.370;9.006;2023-04-23T02:08:20;11.50;99.90
11242;DHT22;5678;52.370;9.006;2023-04-23T02:10:48;11.60;99.90
11242;DHT22;5678;52.370;9.006;2023-04-23T02:13:16;11.80;99.90
11242;DHT22;5678;52.370;9.006;2023-04-23T02:15:45;11.50;99.90
11242;DHT22;5678;52.370;9.006;2023-04-23T02:18:13;11.90;99.90
11242;DHT22;5678;52.370;9.006;2023-04-23T02:20:41;12.60;99.90
11242;DHT22;5678;52.370;9.006;2023-04-23T02:23:09;11.30;99.90
11242;DHT22;5678;52.370;9.006;2023-04-23T02:25:37;11.70;99.90
11242;DHT22;5678;52.370;9.006;2023-04-23T02:28:05;13.40;99.90
11242;DHT22;5678;52.370;9.006;2023-04-23T02:30:34;11.40;99.90
11242;DHT22;5678;52.370;9.006;2023-04-23T02:33:03;11.60;99.90
11242;DHT22;5678;52.370;9.006;2023-04-23T02:35:31;11.30;99.90
11242;DHT22;5678;52.370;9.006;2023-04-23T02:37:59;11.20;99.90
11242;DHT22;5678;52.370;9.006;2023-04-23T02:40:27;11.40;99.90
11242;DHT22;5678;52.370;9.006;2023-04-23T02:42:55;11.50;99.90
11242;DHT22;5678;52.370;9.006;2023-04-23T02:45:23;11.40;99.90
11242;DHT22;5678;52.370;9.006;2023-04-23T02:47:51;11.20;99.90
11242;DHT22;5678;52.370;9.006;2023-04-23T02:50:21;11.10;99.90
11242;DHT22;5678;52.370;9.006;2023-04-23T02:52:49;11.10;99.90
11242;DHT22;5678;52.370;9.006;2023-04-23T02:55:17;10.90;99.90
11242;DHT22;5678;52.370;9.006;2023-04-23T02:57:45;10.90;99.90
11242;DHT22;5678;52.370;9.006;2023-04-23T03:00:13;10.90;99.90
11242;DHT22;5678;52.370;9.006;2023-04-23T03:02:42;11.00;99.90
11242;DHT22;5678;52.370;9.006;2023-04-23T03:05:10;10.40;99.90
11242;DHT22;5678;52.370;9.006;2023-04-23T03:07:40;10.70;99.90
11242;DHT22;5678;52.370;9.006;2023-04-23T03:10:08;10.70;99.90
11242;DHT22;5678;52.370;9.006;2023-04-23T03:12:36;10.90;99.90
11242;DHT22;5678;52.370;9.006;2023-04-23T03:15:05;10.50;99.90
11242;DHT22;5678;52.370;9.006;2023-04-23T03:17:33;10.80;99.90
11242;DHT22;5678;52.370;9.006;2023-04-23T03:20:03;11.30;99.90
11242;DHT22;5678;52.370;9.006;2023-04-23T03:22:31;10.80;99.90
11242;DHT22;5678;52.370;9.006;2023-04-23T03:25:00;10.40;99.90
11242;DHT22;5678;52.370;9.006;2023-04-23T03:27:29;12.90;99.90
11242;DHT22;5678;52.370;9.006;2023-04-23T03:29:57;10.30;99.90
11242;DHT22;5678;52.370;9.006;2023-04-23T03:32:25;10.20;99.90
11242;DHT22;5678;52.370;9.006;2023-04-23T03:34:53;10.50;99.90
11242;DHT22;5678;52.370;9.006;2023-04-23T03:37:21;10.30;99.90
11242;DHT22;5678;52.370;9.006;2023-04-23T03:39:48;10.30;99.90
11242;DHT22;5678;52.370;9.006;2023-04-23T03:42:18;11.30;99.90
11242;DHT22;5678;52.370;9.006;2023-04-23T03:44:46;10.70;99.90
11242;DHT22;5678;52.370;9.006;2023-04-23T03:47:14;10.30;99.90
11242;DHT22;5678;52.370;9.006;2023-04-23T03:49:42;10.30;99.90
11242;DHT22;5678;52.370;9.006;2023-04-23T03:52:10;11.40;99.90
11242;DHT22;5678;52.370;9.006;2023-04-23T03:54:38;10.30;99.90
11242;DHT22;5678;52.370;9.006;2023-04-23T03:57:07;10.30;99.90
11242;DHT22;5678;52.370;9.006;2023-04-23T03:59:38;10.20;99.90
11242;DHT22;5678;52.370;9.006;2023-04-23T04:02:06;11.00;99.90
11242;DHT22;5678;52.370;9.006;2023-04-23T04:04:34;10.40;99.90
11242;DHT22;5678;52.370;9.006;2023-04-23T04:07:03;10.10;99.90
11242;DHT22;5678;52.370;9.006;2023-04-23T04:09:33;10.30;99.90
11242;DHT22;5678;52.370;9.006;2023-04-23T04:12:01;10.30;99.90
11242;DHT22;5678;52.370;9.006;2023-04-23T04:14:30;10.10;99.90
11242;DHT22;5678;52.370;9.006;2023-04-23T04:17:00;9.90;99.90
11242;DHT22;5678;52.370;9.006;2023-04-23T04:19:27;11.70;99.90
11242;DHT22;5678;52.370;9.006;2023-04-23T04:21:55;9.60;99.90
11242;DHT22;5678;52.370;9.006;2023-04-23T04:24:23;9.60;99.90
11242;DHT22;5678;52.370;9.006;2023-04-23T04:26:52;9.40;99.90
11242;DHT22;5678;52.370;9.006;2023-04-23T04:29:20;9.70;99.90
11242;DHT22;5678;52.370;9.006;2023-04-23T04:31:49;9.80;99.90
11242;DHT22;5678;52.370;9.006;2023-04-23T04:34:19;11.60;99.90
11242;DHT22;5678;52.370;9.006;2023-04-23T04:36:47;12.80;99.90
11242;DHT22;5678;52.370;9.006;2023-04-23T04:39:15;9.60;99.90
11242;DHT22;5678;52.370;9.006;2023-04-23T04:41:43;9.80;99.90
11242;DHT22;5678;52.370;9.006;2023-04-23T04:44:11;9.50;99.90
11242;DHT22;5678;52.370;9.006;2023-04-23T04:46:40;9.70;99.90
11242;DHT22;5678;52.370;9.006;2023-04-23T04:49:09;11.10;99.90
11242;DHT22;5678;52.370;9.006;2023-04-23T04:51:39;9.70;99.90
11242;DHT22;5678;52.370;9.006;2023-04-23T04:54:07;9.70;99.90
11242;DHT22;5678;52.370;9.006;2023-04-23T04:56:35;11.00;99.90
11242;DHT22;5678;52.370;9.006;2023-04-23T04:59:03;11.70;99.90
11242;DHT22;5678;52.370;9.006;2023-04-23T05:01:32;9.70;99.90
11242;DHT22;5678;52.370;9.006;2023-04-23T05:04:00;10.10;99.90
11242;DHT22;5678;52.370;9.006;2023-04-23T05:06:29;11.40;99.90
11242;DHT22;5678;52.370;9.006;2023-04-23T05:08:59;10.00;99.90
11242;DHT22;5678;52.370;9.006;2023-04-23T05:11:27;10.10;99.90
11242;DHT22;5678;52.370;9.006;2023-04-23T05:13:56;10.20;99.90
11242;DHT22;5678;52.370;9.006;2023-04-23T05:16:23;9.80;99.90
11242;DHT22;5678;52.370;9.006;2023-04-23T05:18:51;9.90;99.90
11242;DHT22;5678;52.370;9.006;2023-04-23T05:21:19;11.20;99.90
11242;DHT22;5678;52.370;9.006;2023-04-23T05:23:47;10.20;99.90
11242;DHT22;5678;52.370;9.006;2023-04-23T05:26:16;9.90;99.90
11242;DHT22;5678;52.370;9.006;2023-04-23T05:28:44;11.40;99.90
11242;DHT22;5678;52.370;9.006;2023-04-23T05:31:12;10.50;99.90
11242;DHT22;5678;52.370;9.006;2023-04-23T05:33:40;10.20;99.90
11242;DHT22;5678;52.370;9.006;2023-04-23T05:36:16;10.10;99.90
11242;DHT22;5678;52.370;9.006;2023-04-23T05:38:45;10.10;99.90
11242;DHT22;5678;52.370;9.006;2023-04-23T05:41:13;10.00;99.90
11242;DHT22;5678;52.370;9.006;2023-04-23T05:43:43;10.30;99.90
11242;DHT22;5678;52.370;9.006;2023-04-23T05:46:11;10.30;99.90
11242;DHT22;5678;52.370;9.006;2023-04-23T05:48:39;10.30;99.90
11242;DHT22;5678;52.370;9.006;2023-04-23T05:51:07;10.40;99.90
11242;DHT22;5678;52.370;9.006;2023-04-23T05:53:35;10.50;99.90
11242;DHT22;5678;52.370;9.006;2023-04-23T05:56:04;10.10;99.90
11242;DHT22;5678;52.370;9.006;2023-04-23T05:58:33;10.70;99.90
11242;DHT22;5678;52.370;9.006;2023-04-23T06:01:02;10.50;99.90
11242;DHT22;5678;52.370;9.006;2023-04-23T06:03:30;10.60;99.90
11242;DHT22;5678;52.370;9.006;2023-04-23T06:05:58;10.70;99.90
11242;DHT22;5678;52.370;9.006;2023-04-23T06:08:26;10.90;99.90
11242;DHT22;5678;52.370;9.006;2023-04-23T06:10:55;13.00;99.90
11242;DHT22;5678;52.370;9.006;2023-04-23T06:13:22;11.00;99.90
11242;DHT22;5678;52.370;9.006;2023-04-23T06:15:51;11.40;99.90
11242;DHT22;5678;52.370;9.006;2023-04-23T06:18:20;12.00;99.90
11242;DHT22;5678;52.370;9.006;2023-04-23T06:20:48;11.50;99.90
11242;DHT22;5678;52.370;9.006;2023-04-23T06:23:17;11.70;99.90
11242;DHT22;5678;52.370;9.006;2023-04-23T06:25:45;11.60;99.90
11242;DHT22;5678;52.370;9.006;2023-04-23T06:28:12;13.50;99.90
11242;DHT22;5678;52.370;9.006;2023-04-23T06:30:41;13.40;99.90
11242;DHT22;5678;52.370;9.006;2023-04-23T06:33:09;12.70;99.90
11242;DHT22;5678;52.370;9.006;2023-04-23T06:35:39;11.50;99.90
11242;DHT22;5678;52.370;9.006;2023-04-23T06:38:07;13.10;99.90
11242;DHT22;5678;52.370;9.006;2023-04-23T06:40:35;12.00;99.90
11242;DHT22;5678;52.370;9.006;2023-04-23T06:43:03;12.10;99.90
11242;DHT22;5678;52.370;9.006;2023-04-23T06:45:31;14.30;99.90
11242;DHT22;5678;52.370;9.006;2023-04-23T06:48:01;13.80;99.90
11242;DHT22;5678;52.370;9.006;2023-04-23T06:50:29;14.20;99.90
11242;DHT22;5678;52.370;9.006;2023-04-23T06:52:59;13.50;99.90
11242;DHT22;5678;52.370;9.006;2023-04-23T06:55:27;13.40;99.90
11242;DHT22;5678;52.370;9.006;2023-04-23T06:57:55;13.50;99.90
11242;DHT22;5678;52.370;9.006;2023-04-23T07:00:23;13.80;99.90
11242;DHT22;5678;52.370;9.006;2023-04-23T07:02:51;13.10;99.90
11242;DHT22;5678;52.370;9.006;2023-04-23T07:05:20;13.20;99.90
11242;DHT22;5678;52.370;9.006;2023-04-23T07:07:48;13.50;99.90
11242;DHT22;5678;52.370;9.006;2023-04-23T07:10:17;13.20;99.90
11242;DHT22;5678;52.370;9.006;2023-04-23T07:12:45;14.50;99.90
11242;DHT22;5678;52.370;9.006;2023-04-23T07:15:13;15.70;99.90
11242;DHT22;5678;52.370;9.006;2023-04-23T07:20:19;14.50;99.90
11242;DHT22;5678;52.370;9.006;2023-04-23T07:22:47;14.70;99.90
11242;DHT22;5678;52.370;9.006;2023-04-23T07:25:16;15.40;99.90
11242;DHT22;5678;52.370;9.006;2023-04-23T07:27:44;15.40;99.90
11242;DHT22;5678;52.370;9.006;2023-04-23T07:30:12;16.00;99.90
11242;DHT22;5678;52.370;9.006;2023-04-23T07:32:40;16.50;99.90
11242;DHT22;5678;52.370;9.006;2023-04-23T07:35:09;17.10;99.90
11242;DHT22;5678;52.370;9.006;2023-04-23T07:37:37;17.20;99.90
11242;DHT22;5678;52.370;9.006;2023-04-23T07:40:06;17.70;99.90
11242;DHT22;5678;52.370;9.006;2023-04-23T07:42:35;17.00;99.90
11242;DHT22;5678;52.370;9.006;2023-04-23T07:45:04;17.10;99.90
11242;DHT22;5678;52.370;9.006;2023-04-23T07:47:32;16.70;99.90
11242;DHT22;5678;52.370;9.006;2023-04-23T07:50:00;16.40;99.90
11242;DHT22;5678;52.370;9.006;2023-04-23T07:52:28;16.50;99.90
11242;DHT22;5678;52.370;9.006;2023-04-23T07:54:56;17.40;99.90
11242;DHT22;5678;52.370;9.006;2023-04-23T07:57:24;18.00;99.90
11242;DHT22;5678;52.370;9.006;2023-04-23T07:59:53;17.80;99.90
11242;DHT22;5678;52.370;9.006;2023-04-23T08:02:22;17.90;99.90
11242;DHT22;5678;52.370;9.006;2023-04-23T08:04:52;17.80;99.90
11242;DHT22;5678;52.370;9.006;2023-04-23T08:07:21;17.80;99.90
11242;DHT22;5678;52.370;9.006;2023-04-23T08:09:49;18.20;99.90
11242;DHT22;5678;52.370;9.006;2023-04-23T08:12:18;18.40;99.90
11242;DHT22;5678;52.370;9.006;2023-04-23T08:14:46;18.70;99.90
11242;DHT22;5678;52.370;9.006;2023-04-23T08:17:17;18.80;99.90
11242;DHT22;5678;52.370;9.006;2023-04-23T08:19:45;19.10;99.90
11242;DHT22;5678;52.370;9.006;2023-04-23T08:22:13;18.60;99.90
11242;DHT22;5678;52.370;9.006;2023-04-23T08:24:42;19.00;99.90
11242;DHT22;5678;52.370;9.006;2023-04-23T08:27:10;19.40;99.90
11242;DHT22;5678;52.370;9.006;2023-04-23T08:29:38;19.40;99.90
11242;DHT22;5678;52.370;9.006;2023-04-23T08:32:06;19.70;99.90
11242;DHT22;5678;52.370;9.006;2023-04-23T08:34:35;20.10;99.90
11242;DHT22;5678;52.370;9.006;2023-04-23T08:37:03;19.90;99.90
11242;DHT22;5678;52.370;9.006;2023-04-23T08:39:35;20.50;99.90
11242;DHT22;5678;52.370;9.006;2023-04-23T08:42:10;20.10;99.90
11242;DHT22;5678;52.370;9.006;2023-04-23T08:44:42;20.20;99.90
11242;DHT22;5678;52.370;9.006;2023-04-23T08:47:11;20.60;99.90
11242;DHT22;5678;52.370;9.006;2023-04-23T08:49:44;20.80;99.90
11242;DHT22;5678;52.370;9.006;2023-04-23T08:52:15;21.00;99.90
11242;DHT22;5678;52.370;9.006;2023-04-23T08:54:47;20.90;99.90
11242;DHT22;5678;52.370;9.006;2023-04-23T08:57:16;21.40;99.90
11242;DHT22;5678;52.370;9.006;2023-04-23T08:59:45;21.60;99.90
11242;DHT22;5678;52.370;9.006;2023-04-23T09:02:15;21.20;99.90
11242;DHT22;5678;52.370;9.006;2023-04-23T09:04:45;21.40;99.90
11242;DHT22;5678;52.370;9.006;2023-04-23T09:07:17;21.40;99.90
11242;DHT22;5678;52.370;9.006;2023-04-23T09:09:46;21.90;99.90
11242;DHT22;5678;52.370;9.006;2023-04-23T09:12:14;21.40;99.90
11242;DHT22;5678;52.370;9.006;2023-04-23T09:14:42;21.60;99.90
11242;DHT22;5678;52.370;9.006;2023-04-23T09:17:10;21.60;99.90
11242;DHT22;5678;52.370;9.006;2023-04-23T09:19:38;21.70;99.90
11242;DHT22;5678;52.370;9.006;2023-04-23T09:22:08;22.00;99.90
11242;DHT22;5678;52.370;9.006;2023-04-23T09:24:36;22.20;99.90
11242;DHT22;5678;52.370;9.006;2023-04-23T09:27:04;21.80;99.90
11242;DHT22;5678;52.370;9.006;2023-04-23T09:29:32;22.00;99.90
11242;DHT22;5678;52.370;9.006;2023-04-23T09:32:06;21.80;99.90
11242;DHT22;5678;52.370;9.006;2023-04-23T09:34:35;21.90;99.90
11242;DHT22;5678;52.370;9.006;2023-04-23T09:37:04;22.20;99.90
11242;DHT22;5678;52.370;9.006;2023-04-23T09:39:34;22.30;99.90
11242;DHT22;5678;52.370;9.006;2023-04-23T09:42:04;22.40;99.90
11242;DHT22;5678;52.370;9.006;2023-04-23T09:44:34;22.60;99.90
11242;DHT22;5678;52.370;9.006;2023-04-23T09:47:06;22.70;99.90
11242;DHT22;5678;52.370;9.006;2023-04-23T09:49:44;22.70;99.90
11242;DHT22;5678;52.370;9.006;2023-04-23T09:52:12;22.60;99.90
11242;DHT22;5678;52.370;9.006;2023-04-23T09:54:42;22.80;99.90
11242;DHT22;5678;52.370;9.006;2023-04-23T09:57:12;22.70;99.90
11242;DHT22;5678;52.370;9.006;2023-04-23T09:59:40;23.00;99.90
11242;DHT22;5678;52.370;9.006;2023-04-23T10:02:17;23.40;99.90
11242;DHT22;5678;52.370;9.006;2023-04-23T10:04:49;23.20;99.90
11242;DHT22;5678;52.370;9.006;2023-04-23T10:07:29;23.30;99.90
11242;DHT22;5678;52.370;9.006;2023-04-23T10:09:59;23.60;99.90
11242;DHT22;5678;52.370;9.006;2023-04-23T10:12:27;23.70;99.90
11242;DHT22;5678;52.370;9.006;2023-04-23T10:15:15;23.50;99.90
11242;DHT22;5678;52.370;9.006;2023-04-23T10:17:44;23.40;99.90
11242;DHT22;5678;52.370;9.006;2023-04-23T10:20:13;23.30;99.90
11242;DHT22;5678;52.370;9.006;2023-04-23T10:22:43;23.80;99.90
11242;DHT22;5678;52.370;9.006;2023-04-23T10:25:14;23.90;99.90
11242;DHT22;5678;52.370;9.006;2023-04-23T10:27:44;23.80;99.90
11242;DHT22;5678;52.370;9.006;2023-04-23T10:30:20;24.30;99.90
11242;DHT22;5678;52.370;9.006;2023-04-23T10:32:50;23.60;99.90
11242;DHT22;5678;52.370;9.006;2023-04-23T10:35:20;23.30;99.90
11242;DHT22;5678;52.370;9.006;2023-04-23T10:37:49;23.40;99.90
11242;DHT22;5678;52.370;9.006;2023-04-23T10:40:23;23.60;99.90
11242;DHT22;5678;52.370;9.006;2023-04-23T10:42:53;23.70;99.90
11242;DHT22;5678;52.370;9.006;2023-04-23T10:45:21;23.50;99.90
11242;DHT22;5678;52.370;9.006;2023-04-23T10:47:52;23.40;99.90
11242;DHT22;5678;52.370;9.006;2023-04-23T10:50:23;23.20;99.90
11242;DHT22;5678;52.370;9.006;2023-04-23T10:52:51;23.00;99.90
11242;DHT22;5678;52.370;9.006;2023-04-23T10:55:23;23.10;99.90
11242;DHT22;5678;52.370;9.006;2023-04-23T10:57:57;22.80;99.90
11242;DHT22;5678;52.370;9.006;2023-04-23T11:00:29;23.00;99.90
11242;DHT22;5678;52.370;9.006;2023-04-23T11:03:27;22.90;99.90
11242;DHT22;5678;52.370;9.006;2023-04-23T11:05:57;22.70;99.90
11242;DHT22;5678;52.370;9.006;2023-04-23T11:08:24;22.70;99.90
11242;DHT22;5678;52.370;9.006;2023-04-23T11:10:58;22.60;99.90
11242;DHT22;5678;52.370;9.006;2023-04-23T11:13:27;22.90;99.90
11242;DHT22;5678;52.370;9.006;2023-04-23T11:16:15;22.70;99.90
11242;DHT22;5678;52.370;9.006;2023-04-23T11:19:01;22.50;99.90
11242;DHT22;5678;52.370;9.006;2023-04-23T11:21:58;22.60;99.90
11242;DHT22;5678;52.370;9.006;2023-04-23T11:24:28;22.40;99.90
11242;DHT22;5678;52.370;9.006;2023-04-23T11:26:58;22.90;99.90
11242;DHT22;5678;52.370;9.006;2023-04-23T11:29:27;22.80;99.90
11242;DHT22;5678;52.370;9.006;2023-04-23T11:31:55;22.50;99.90
11242;DHT22;5678;52.370;9.006;2023-04-23T11:34:30;22.00;99.90
11242;DHT22;5678;52.370;9.006;2023-04-23T11:36:59;22.10;99.90
11242;DHT22;5678;52.370;9.006;2023-04-23T11:39:27;21.80;99.90
11242;DHT22;5678;52.370;9.006;2023-04-23T11:41:56;21.00;99.90
11242;DHT22;5678;52.370;9.006;2023-04-23T11:44:26;20.80;99.90
11242;DHT22;5678;52.370;9.006;2023-04-23T11:46:54;20.20;99.90
11242;DHT22;5678;52.370;9.006;2023-04-23T11:49:24;20.80;99.90
11242;DHT22;5678;52.370;9.006;2023-04-23T11:51:52;20.70;99.90
11242;DHT22;5678;52.370;9.006;2023-04-23T11:54:24;20.20;99.90
11242;DHT22;5678;52.370;9.006;2023-04-23T11:56:53;20.50;99.90
11242;DHT22;5678;52.370;9.006;2023-04-23T11:59:22;21.10;99.90
11242;DHT22;5678;52.370;9.006;2023-04-23T12:01:54;21.30;99.90
11242;DHT22;5678;52.370;9.006;2023-04-23T12:04:23;21.70;99.90
11242;DHT22;5678;52.370;9.006;2023-04-23T12:06:55;21.20;99.90
11242;DHT22;5678;52.370;9.006;2023-04-23T12:09:24;21.10;99.90
11242;DHT22;5678;52.370;9.006;2023-04-23T12:11:53;20.90;99.90
11242;DHT22;5678;52.370;9.006;2023-04-23T12:14:26;20.90;99.90
11242;DHT22;5678;52.370;9.006;2023-04-23T12:16:58;20.60;99.90
11242;DHT22;5678;52.370;9.006;2023-04-23T12:19:35;20.30;99.90
11242;DHT22;5678;52.370;9.006;2023-04-23T12:22:03;20.30;99.90
11242;DHT22;5678;52.370;9.006;2023-04-23T12:24:44;19.40;99.90
11242;DHT22;5678;52.370;9.006;2023-04-23T12:27:14;19.20;99.90
11242;DHT22;5678;52.370;9.006;2023-04-23T12:29:45;18.90;99.90
11242;DHT22;5678;52.370;9.006;2023-04-23T12:32:15;18.30;99.90
11242;DHT22;5678;52.370;9.006;2023-04-23T12:34:50;17.80;99.90
11242;DHT22;5678;52.370;9.006;2023-04-23T12:37:23;18.10;99.90
11242;DHT22;5678;52.370;9.006;2023-04-23T12:39:51;18.50;99.90
11242;DHT22;5678;52.370;9.006;2023-04-23T12:42:21;16.50;99.90
11242;DHT22;5678;52.370;9.006;2023-04-23T12:44:49;16.60;99.90
11242;DHT22;5678;52.370;9.006;2023-04-23T12:47:19;16.70;99.90
11242;DHT22;5678;52.370;9.006;2023-04-23T12:49:48;16.80;99.90
11242;DHT22;5678;52.370;9.006;2023-04-23T12:52:19;17.90;99.90
11242;DHT22;5678;52.370;9.006;2023-04-23T12:54:47;17.40;99.90
11242;DHT22;5678;52.370;9.006;2023-04-23T12:57:17;17.80;99.90
11242;DHT22;5678;52.370;9.006;2023-04-23T12:59:48;18.40;99.90
11242;DHT22;5678;52.370;9.006;2023-04-23T13:02:17;18.80;99.90
11242;DHT22;5678;52.370;9.006;2023-04-23T13:04:46;18.90;99.90
11242;DHT22;5678;52.370;9.006;2023-04-23T13:07:14;19.10;99.90
11242;DHT22;5678;52.370;9.006;2023-04-23T13:09:42;19.20;99.90
11242;DHT22;5678;52.370;9.006;2023-04-23T13:12:10;19.60;99.90
11242;DHT22;5678;52.370;9.006;2023-04-23T13:14:38;19.90;99.90
11242;DHT22;5678;52.370;9.006;2023-04-23T13:17:07;20.10;99.90
11242;DHT22;5678;52.370;9.006;2023-04-23T13:19:34;20.00;99.90
11242;DHT22;5678;52.370;9.006;2023-04-23T13:22:06;20.10;99.90
11242;DHT22;5678;52.370;9.006;2023-04-23T13:24:34;20.40;99.90
11242;DHT22;5678;52.370;9.006;2023-04-23T13:27:02;20.60;99.90
11242;DHT22;5678;52.370;9.006;2023-04-23T13:29:30;20.80;99.90
11242;DHT22;5678;52.370;9.006;2023-04-23T13:31:59;21.00;99.90
11242;DHT22;5678;52.370;9.006;2023-04-23T13:34:27;21.10;99.90
11242;DHT22;5678;52.370;9.006;2023-04-23T13:36:56;21.00;99.90
11242;DHT22;5678;52.370;9.006;2023-04-23T13:39:26;20.90;99.90
11242;DHT22;5678;52.370;9.006;2023-04-23T13:41:54;20.90;99.90
11242;DHT22;5678;52.370;9.006;2023-04-23T13:44:35;20.80;99.90
11242;DHT22;5678;52.370;9.006;2023-04-23T13:47:03;20.70;99.90
11242;DHT22;5678;52.370;9.006;2023-04-23T13:49:31;20.40;99.90
11242;DHT22;5678;52.370;9.006;2023-04-23T13:51:59;20.50;99.90
11242;DHT22;5678;52.370;9.006;2023-04-23T13:54:33;20.50;99.90
11242;DHT22;5678;52.370;9.006;2023-04-23T13:57:02;20.60;99.90
11242;DHT22;5678;52.370;9.006;2023-04-23T13:59:29;20.60;99.90
11242;DHT22;5678;52.370;9.006;2023-04-23T14:01:57;20.50;99.90
11242;DHT22;5678;52.370;9.006;2023-04-23T14:04:25;20.40;99.90
11242;DHT22;5678;52.370;9.006;2023-04-23T14:06:53;20.50;99.90
11242;DHT22;5678;52.370;9.006;2023-04-23T14:09:21;20.60;99.90
11242;DHT22;5678;52.370;9.006;2023-04-23T14:11:51;20.80;99.90
11242;DHT22;5678;52.370;9.006;2023-04-23T14:14:19;20.90;99.90
11242;DHT22;5678;52.370;9.006;2023-04-23T14:16:46;20.90;99.90
11242;DHT22;5678;52.370;9.006;2023-04-23T14:19:14;20.90;99.90
11242;DHT22;5678;52.370;9.006;2023-04-23T14:21:44;20.70;99.90
11242;DHT22;5678;52.370;9.006;2023-04-23T14:24:17;20.50;99.90
11242;DHT22;5678;52.370;9.006;2023-04-23T14:26:48;20.40;99.90
11242;DHT22;5678;52.370;9.006;2023-04-23T14:29:28;20.60;99.90
11242;DHT22;5678;52.370;9.006;2023-04-23T14:31:57;20.90;99.90
11242;DHT22;5678;52.370;9.006;2023-04-23T14:34:26;20.70;99.90
11242;DHT22;5678;52.370;9.006;2023-04-23T14:36:54;20.70;99.90
11242;DHT22;5678;52.370;9.006;2023-04-23T14:39:22;20.60;99.90
11242;DHT22;5678;52.370;9.006;2023-04-23T14:41:51;20.60;99.90
11242;DHT22;5678;52.370;9.006;2023-04-23T14:44:19;20.80;99.90
11242;DHT22;5678;52.370;9.006;2023-04-23T14:46:50;20.70;99.90
11242;DHT22;5678;52.370;9.006;2023-04-23T14:49:18;20.60;99.90
11242;DHT22;5678;52.370;9.006;2023-04-23T14:51:46;20.60;99.90
11242;DHT22;5678;52.370;9.006;2023-04-23T14:54:16;20.60;99.90
11242;DHT22;5678;52.370;9.006;2023-04-23T14:56:45;20.70;99.90
11242;DHT22;5678;52.370;9.006;2023-04-23T14:59:13;20.70;99.90
11242;DHT22;5678;52.370;9.006;2023-04-23T15:01:41;20.70;99.90
11242;DHT22;5678;52.370;9.006;2023-04-23T15:04:10;20.80;99.90
11242;DHT22;5678;52.370;9.006;2023-04-23T15:06:38;20.90;99.90
11242;DHT22;5678;52.370;9.006;2023-04-23T15:09:07;20.70;99.90
11242;DHT22;5678;52.370;9.006;2023-04-23T15:11:34;20.40;99.90
11242;DHT22;5678;52.370;9.006;2023-04-23T15:14:07;20.30;99.90
11242;DHT22;5678;52.370;9.006;2023-04-23T15:16:36;20.10;99.90
11242;DHT22;5678;52.370;9.006;2023-04-23T15:19:07;20.00;99.90
11242;DHT22;5678;52.370;9.006;2023-04-23T15:21:37;20.10;99.90
11242;DHT22;5678;52.370;9.006;2023-04-23T15:24:07;19.90;99.90
11242;DHT22;5678;52.370;9.006;2023-04-23T15:26:35;20.20;99.90
11242;DHT22;5678;52.370;9.006;2023-04-23T15:29:04;20.00;99.90
11242;DHT22;5678;52.370;9.006;2023-04-23T15:31:34;19.90;99.90
11242;DHT22;5678;52.370;9.006;2023-04-23T15:34:02;19.70;99.90
11242;DHT22;5678;52.370;9.006;2023-04-23T15:36:32;19.80;99.90
11242;DHT22;5678;52.370;9.006;2023-04-23T15:39:02;19.50;99.90
11242;DHT22;5678;52.370;9.006;2023-04-23T15:41:30;19.50;99.90
11242;DHT22;5678;52.370;9.006;2023-04-23T15:43:58;20.20;99.90
11242;DHT22;5678;52.370;9.006;2023-04-23T15:46:26;19.40;99.90
11242;DHT22;5678;52.370;9.006;2023-04-23T15:48:54;19.40;99.90
11242;DHT22;5678;52.370;9.006;2023-04-23T15:51:22;19.20;99.90
11242;DHT22;5678;52.370;9.006;2023-04-23T15:53:50;19.10;99.90
11242;DHT22;5678;52.370;9.006;2023-04-23T15:56:20;18.80;99.90
11242;DHT22;5678;52.370;9.006;2023-04-23T15:58:48;18.80;99.90
11242;DHT22;5678;52.370;9.006;2023-04-23T16:01:17;18.70;99.90
11242;DHT22;5678;52.370;9.006;2023-04-23T16:03:45;18.50;99.90